Terminal Aerodrome Forecast
Issued by NWS

Home | Current Version | Previous Version | Text Only | Print | Product List | Glossary On
Versions: 1 2 3 4 5 6 7 8 9 10 11 12 13 14 15 16
231
FTUS45 KABQ 260523
TAFGUP
TAF
KGUP 260523Z 2606/2706 23007KT P6SM SCT060
     FM261200 VRB05KT P6SM SCT040
     FM262000 27008KT P6SM SCT080
     FM262200 27008KT P6SM VCTS BKN080CB
     FM270100 26009KT P6SM BKN100=

USA.gov is the U.S. government's official web portal to all federal, state and local government web resources and services.